Portada
METAR-TAF:

METAR-TAF

Aeropuertos :

Aeropuerto de Svalbard

Longyearbyen, Noruega

latitud: 78-15N, longitud: 015-28E, altitud: 2 m

Observación

El informe se hizo hace 29 minutos, a las 06:50 UTC
Viento 2 kt con dirección variable
Temperatura 7°C
Humedad 66%
Presión 1001 hPa
Visibilidad 10 km o más
Escasas nubes a una altura de 3500 ft
Cielo nuboso a una altura de 8000 ft

METAR: ENSB 220650Z VRB02KT 9999 FEW035 BKN080 07/01 Q1001 RMK WIND 1400FT VRB03KT

Hora: 09:19 (07:19 UTC)

Pronóstico

Pronóstico válido del 22 a las 06 UTC al 23 a las 06 UTC
Viento 5 kt con dirección variable
Visibilidad 10 km o más
Escasas nubes a una altura de 2000 ft
Cielo nuboso a una altura de 6000 ft

TAF: ENSB 2206/2306 VRB05KT 9999 FEW020 BKN060

Observaciones y pronósticos meteorológicos de más de 4000 aeropuertos (mensajes METAR y TAF).

Los puntos amarillos y rojos representan las estaciones disponibles.

Ponga el ratón en el punto deseado para ver el nombre de la estación.

Haga clic para ver las observaciones y los pronósticos meteorológicos.

Para cambiar el mapa : haga clic en los botones verdes con una cruz de color negro para hacer un zoom, en el botón verde con un guión para alejar o en las flechas verdes para mapas adyacentes.


METAR-TAF: